createdAt,value
2018-02-17T00:00:37.714Z,1017.6
2018-02-17T00:01:37.694Z,1017.57
2018-02-17T00:02:37.669Z,1017.55
2018-02-17T00:03:37.645Z,1017.57
2018-02-17T00:04:37.621Z,1017.6
2018-02-17T00:05:37.596Z,1017.59
2018-02-17T00:06:37.573Z,1017.64
2018-02-17T00:07:37.551Z,1017.59
2018-02-17T00:08:37.530Z,1017.61
2018-02-17T00:09:37.503Z,1017.56
2018-02-17T00:10:37.479Z,1017.58
2018-02-17T00:11:37.460Z,1017.53
2018-02-17T00:12:37.435Z,1017.55
2018-02-17T00:13:37.408Z,1017.52
2018-02-17T00:14:37.385Z,1017.56
2018-02-17T00:15:37.364Z,1017.54
2018-02-17T00:16:37.339Z,1017.48
2018-02-17T00:17:37.315Z,1017.49
2018-02-17T00:18:37.292Z,1017.49
2018-02-17T00:19:37.268Z,1017.5
2018-02-17T00:20:37.244Z,1017.52
2018-02-17T00:21:37.221Z,1017.52
2018-02-17T00:22:37.199Z,1017.53
2018-02-17T00:23:37.174Z,1017.5
2018-02-17T00:24:37.150Z,1017.52
2018-02-17T00:25:37.129Z,1017.48
2018-02-17T00:26:37.103Z,1017.44
2018-02-17T00:27:37.083Z,1017.45
2018-02-17T00:28:37.065Z,1017.48
2018-02-17T00:29:37.035Z,1017.53
2018-02-17T00:30:37.008Z,1017.48
2018-02-17T00:31:36.985Z,1017.52
2018-02-17T00:32:36.965Z,1017.53
2018-02-17T00:33:36.938Z,1017.54
2018-02-17T00:34:36.915Z,1017.52
2018-02-17T00:35:36.892Z,1017.5
2018-02-17T00:36:36.871Z,1017.5
2018-02-17T00:37:36.844Z,1017.48
2018-02-17T00:38:36.822Z,1017.47
2018-02-17T00:39:36.797Z,1017.46
2018-02-17T00:40:36.774Z,1017.43
2018-02-17T00:41:36.752Z,1017.38
2018-02-17T00:42:36.729Z,1017.37
2018-02-17T00:43:36.702Z,1017.36
2018-02-17T00:44:36.680Z,1017.38
2018-02-17T00:45:36.661Z,1017.33
2018-02-17T00:46:36.632Z,1017.31
2018-02-17T00:47:36.611Z,1017.33
2018-02-17T00:48:36.585Z,1017.32
2018-02-17T00:49:36.563Z,1017.33
2018-02-17T00:50:36.537Z,1017.3
2018-02-17T00:51:36.515Z,1017.27
2018-02-17T00:52:36.494Z,1017.26
2018-02-17T00:53:36.469Z,1017.23
2018-02-17T00:54:36.444Z,1017.23
2018-02-17T00:55:36.422Z,1017.21
2018-02-17T00:56:36.400Z,1017.22
2018-02-17T00:57:36.374Z,1017.2
2018-02-17T00:58:36.351Z,1017.18
2018-02-17T00:59:36.326Z,1017.14
2018-02-17T01:00:36.304Z,1017.13
2018-02-17T01:01:36.281Z,1017.12
2018-02-17T01:02:36.255Z,1017.12
2018-02-17T01:03:36.239Z,1017.15
2018-02-17T01:04:36.211Z,1017.15
2018-02-17T01:05:36.185Z,1017.17
2018-02-17T01:06:36.162Z,1017.18
2018-02-17T01:07:36.138Z,1017.17
2018-02-17T01:08:36.114Z,1017.18
2018-02-17T01:09:36.091Z,1017.2
2018-02-17T01:10:36.067Z,1017.23
2018-02-17T01:11:36.049Z,1017.21
2018-02-17T01:12:36.019Z,1017.23
2018-02-17T01:13:35.998Z,1017.22
2018-02-17T01:14:35.971Z,1017.25
2018-02-17T01:15:35.948Z,1017.28
2018-02-17T01:16:35.923Z,1017.26
2018-02-17T01:17:35.903Z,1017.22
2018-02-17T01:18:35.876Z,1017.18
2018-02-17T01:19:35.852Z,1017.19
2018-02-17T01:20:35.828Z,1017.16
2018-02-17T01:21:35.809Z,1017.11
2018-02-17T01:22:35.794Z,1017.07
2018-02-17T01:23:35.756Z,1017.09
2018-02-17T01:24:35.734Z,1017.03
2018-02-17T01:25:35.710Z,1017.02
2018-02-17T01:26:35.686Z,1017
2018-02-17T01:27:35.665Z,1017.01
2018-02-17T01:28:35.647Z,1016.94
2018-02-17T01:29:35.618Z,1016.93
2018-02-17T01:30:35.596Z,1016.92
2018-02-17T01:31:35.570Z,1016.91
2018-02-17T01:32:35.541Z,1016.86
2018-02-17T01:33:35.518Z,1016.85
2018-02-17T01:34:35.494Z,1016.8
2018-02-17T01:35:35.469Z,1016.76
2018-02-17T01:36:35.446Z,1016.75
2018-02-17T01:37:35.421Z,1016.67
2018-02-17T01:38:35.398Z,1016.64
2018-02-17T01:39:35.373Z,1016.62
2018-02-17T01:40:35.352Z,1016.57
2018-02-17T01:41:35.326Z,1016.55
2018-02-17T01:42:35.301Z,1016.57
2018-02-17T01:43:35.278Z,1016.52
2018-02-17T01:44:35.254Z,1016.53
2018-02-17T01:45:35.229Z,1016.55
2018-02-17T01:46:35.205Z,1016.55
2018-02-17T01:47:35.181Z,1016.52
2018-02-17T01:48:35.156Z,1016.5
2018-02-17T01:49:35.132Z,1016.51
2018-02-17T01:50:35.108Z,1016.49
2018-02-17T01:51:35.086Z,1016.47
2018-02-17T01:52:35.058Z,1016.51
2018-02-17T01:53:35.036Z,1016.51
2018-02-17T01:54:35.012Z,1016.5
2018-02-17T01:55:34.988Z,1016.47
2018-02-17T01:56:34.965Z,1016.48
2018-02-17T01:57:34.941Z,1016.49
2018-02-17T01:58:34.915Z,1016.45
2018-02-17T01:59:34.888Z,1016.43
2018-02-17T02:00:34.867Z,1016.42
2018-02-17T02:01:34.841Z,1016.43
2018-02-17T02:02:34.816Z,1016.38
2018-02-17T02:03:34.791Z,1016.42
2018-02-17T02:04:34.769Z,1016.39
2018-02-17T02:05:34.744Z,1016.41
2018-02-17T02:06:34.720Z,1016.45
2018-02-17T02:07:34.694Z,1016.45
2018-02-17T02:08:34.674Z,1016.43
2018-02-17T02:09:34.647Z,1016.41
2018-02-17T02:10:34.631Z,1016.41
2018-02-17T02:11:34.608Z,1016.35
2018-02-17T02:12:34.578Z,1016.39
2018-02-17T02:13:34.552Z,1016.42
2018-02-17T02:14:34.526Z,1016.41
2018-02-17T02:15:34.501Z,1016.46
2018-02-17T02:16:34.480Z,1016.43
2018-02-17T02:17:34.454Z,1016.44
2018-02-17T02:18:34.427Z,1016.45
2018-02-17T02:19:34.404Z,1016.45
2018-02-17T02:20:34.381Z,1016.45
2018-02-17T02:21:34.356Z,1016.41
2018-02-17T02:22:34.338Z,1016.42
2018-02-17T02:23:34.308Z,1016.39
2018-02-17T02:24:34.287Z,1016.4
2018-02-17T02:25:34.260Z,1016.38
2018-02-17T02:26:34.235Z,1016.38
2018-02-17T02:27:34.214Z,1016.43
2018-02-17T02:28:34.190Z,1016.41
2018-02-17T02:29:34.171Z,1016.42
2018-02-17T02:30:34.143Z,1016.42
2018-02-17T02:31:34.116Z,1016.4
2018-02-17T02:32:34.091Z,1016.43
2018-02-17T02:33:34.068Z,1016.44
2018-02-17T02:34:34.049Z,1016.46
2018-02-17T02:35:34.021Z,1016.48
2018-02-17T02:36:33.994Z,1016.48
2018-02-17T02:37:33.975Z,1016.52
2018-02-17T02:38:33.959Z,1016.51
2018-02-17T02:39:33.922Z,1016.51
2018-02-17T02:40:33.898Z,1016.53
2018-02-17T02:41:33.878Z,1016.54
2018-02-17T02:42:33.856Z,1016.51
2018-02-17T02:43:33.824Z,1016.51
2018-02-17T02:44:33.809Z,1016.46
2018-02-17T02:45:33.779Z,1016.47
2018-02-17T02:46:33.756Z,1016.47
2018-02-17T02:47:33.728Z,1016.43
2018-02-17T02:48:33.708Z,1016.39
2018-02-17T02:49:33.684Z,1016.45
2018-02-17T02:50:33.666Z,1016.41
2018-02-17T02:51:33.631Z,1016.37
2018-02-17T02:52:33.608Z,1016.35
2018-02-17T02:53:33.585Z,1016.36
2018-02-17T02:54:33.563Z,1016.35
2018-02-17T02:55:33.535Z,1016.33
2018-02-17T02:56:33.512Z,1016.37
2018-02-17T02:57:33.487Z,1016.37
2018-02-17T02:58:33.466Z,1016.27
2018-02-17T02:59:33.438Z,1016.27
2018-02-17T03:00:33.425Z,1016.22
2018-02-17T03:01:33.389Z,1016.22
2018-02-17T03:02:33.368Z,1016.21
2018-02-17T03:03:33.344Z,1016.22
2018-02-17T03:04:33.321Z,1016.24
2018-02-17T03:05:33.304Z,1016.23
2018-02-17T03:06:33.270Z,1016.24
2018-02-17T03:07:33.246Z,1016.27
2018-02-17T03:08:33.226Z,1016.3
2018-02-17T03:09:33.194Z,1016.31
2018-02-17T03:10:33.174Z,1016.27
2018-02-17T03:11:33.145Z,1016.27
2018-02-17T03:12:33.129Z,1016.28
2018-02-17T03:13:33.100Z,1016.26
2018-02-17T03:14:33.078Z,1016.22
2018-02-17T03:15:33.066Z,1016.19
2018-02-17T03:16:33.029Z,1016.22
2018-02-17T03:17:33.055Z,1016.27
2018-02-17T03:18:32.975Z,1016.28
2018-02-17T03:19:32.957Z,1016.23
2018-02-17T03:20:32.928Z,1016.27
2018-02-17T03:21:32.902Z,1016.28
2018-02-17T03:22:33.083Z,1016.28
2018-02-17T03:23:32.863Z,1016.28
2018-02-17T03:24:32.832Z,1016.23
2018-02-17T03:25:32.804Z,1016.28
2018-02-17T03:26:32.781Z,1016.28
2018-02-17T03:27:32.758Z,1016.32
2018-02-17T03:28:32.732Z,1016.32
2018-02-17T03:29:32.709Z,1016.3
2018-02-17T03:30:32.686Z,1016.28
2018-02-17T03:31:32.662Z,1016.24
2018-02-17T03:32:32.635Z,1016.18
2018-02-17T03:33:32.618Z,1016.2
2018-02-17T03:34:32.590Z,1016.23
2018-02-17T03:35:32.567Z,1016.22
2018-02-17T03:36:32.540Z,1016.16
2018-02-17T03:37:32.516Z,1016.2
2018-02-17T03:38:32.493Z,1016.24
2018-02-17T03:39:32.467Z,1016.21
2018-02-17T03:40:32.440Z,1016.18
2018-02-17T03:41:32.420Z,1016.1
2018-02-17T03:42:32.394Z,1016.1
2018-02-17T03:43:32.373Z,1016.13
2018-02-17T03:44:32.346Z,1016.16
2018-02-17T03:45:32.319Z,1016.21
2018-02-17T03:46:32.294Z,1016.27
2018-02-17T03:47:32.271Z,1016.26
2018-02-17T03:48:32.244Z,1016.26
2018-02-17T03:49:32.222Z,1016.23
2018-02-17T03:50:32.197Z,1016.18
2018-02-17T03:51:32.174Z,1016.13
2018-02-17T03:52:32.149Z,1016.14
2018-02-17T03:53:32.123Z,1016.14
2018-02-17T03:54:32.099Z,1016.15
2018-02-17T03:55:32.079Z,1016.13
2018-02-17T03:56:32.048Z,1016.08
2018-02-17T03:57:32.023Z,1016.07
2018-02-17T03:58:32.012Z,1016.05
2018-02-17T03:59:31.976Z,1015.98
2018-02-17T04:00:31.950Z,1015.92
2018-02-17T04:01:31.926Z,1015.88
2018-02-17T04:02:31.903Z,1015.83
2018-02-17T04:03:31.877Z,1015.82
2018-02-17T04:04:31.850Z,1015.8
2018-02-17T04:05:31.827Z,1015.78
2018-02-17T04:06:31.803Z,1015.81
2018-02-17T04:07:31.779Z,1015.79
2018-02-17T04:08:31.757Z,1015.79
2018-02-17T04:09:31.729Z,1015.79
2018-02-17T04:10:31.708Z,1015.85
2018-02-17T04:11:31.681Z,1015.82
2018-02-17T04:12:31.656Z,1015.81
2018-02-17T04:13:31.630Z,1015.79
2018-02-17T04:14:31.608Z,1015.81
2018-02-17T04:15:31.583Z,1015.81
2018-02-17T04:16:31.556Z,1015.8
2018-02-17T04:17:31.534Z,1015.77
2018-02-17T04:18:31.508Z,1015.74
2018-02-17T04:19:31.484Z,1015.73
2018-02-17T04:20:31.459Z,1015.71
2018-02-17T04:21:31.435Z,1015.74
2018-02-17T04:22:31.412Z,1015.74
2018-02-17T04:23:31.384Z,1015.74
2018-02-17T04:24:31.359Z,1015.69
2018-02-17T04:25:31.336Z,1015.7
2018-02-17T04:26:31.311Z,1015.73
2018-02-17T04:27:31.290Z,1015.69
2018-02-17T04:28:31.264Z,1015.64
2018-02-17T04:29:31.239Z,1015.64
2018-02-17T04:30:31.219Z,1015.64
2018-02-17T04:31:31.188Z,1015.65
2018-02-17T04:32:31.171Z,1015.62
2018-02-17T04:33:31.142Z,1015.6
2018-02-17T04:34:31.115Z,1015.63
2018-02-17T04:35:31.091Z,1015.68
2018-02-17T04:36:31.071Z,1015.63
2018-02-17T04:37:31.042Z,1015.6
2018-02-17T04:38:31.020Z,1015.59
2018-02-17T04:39:30.993Z,1015.6
2018-02-17T04:40:30.967Z,1015.57
2018-02-17T04:41:30.944Z,1015.55
2018-02-17T04:42:30.919Z,1015.53
2018-02-17T04:43:30.898Z,1015.49
2018-02-17T04:44:30.870Z,1015.47
2018-02-17T04:45:30.847Z,1015.48
2018-02-17T04:46:30.824Z,1015.41
2018-02-17T04:47:30.802Z,1015.43
2018-02-17T04:48:30.773Z,1015.35
2018-02-17T04:49:30.749Z,1015.35
2018-02-17T04:50:30.727Z,1015.34
2018-02-17T04:51:30.699Z,1015.34
2018-02-17T04:52:30.682Z,1015.32
2018-02-17T04:53:30.653Z,1015.32
2018-02-17T04:54:30.627Z,1015.3
2018-02-17T04:55:30.602Z,1015.3
2018-02-17T04:56:30.580Z,1015.32
2018-02-17T04:57:30.554Z,1015.26
2018-02-17T04:58:30.528Z,1015.24
2018-02-17T04:59:30.504Z,1015.25
2018-02-17T05:00:30.479Z,1015.21
2018-02-17T05:01:30.455Z,1015.2
2018-02-17T05:02:30.428Z,1015.17
2018-02-17T05:03:30.405Z,1015.17
2018-02-17T05:04:30.382Z,1015.25
2018-02-17T05:05:30.359Z,1015.29
2018-02-17T05:06:30.333Z,1015.27
2018-02-17T05:07:30.307Z,1015.23
2018-02-17T05:08:30.282Z,1015.18
2018-02-17T05:09:30.256Z,1015.19
2018-02-17T05:10:30.232Z,1015.13
2018-02-17T05:11:30.216Z,1015.13
2018-02-17T05:12:30.184Z,1015.12
2018-02-17T05:13:30.157Z,1015.15
2018-02-17T05:14:30.135Z,1015.13
2018-02-17T05:15:30.109Z,1015.08
2018-02-17T05:16:30.093Z,1015.08
2018-02-17T05:17:30.060Z,1015.06
2018-02-17T05:18:30.038Z,1015.02
2018-02-17T05:19:30.013Z,1015
2018-02-17T05:20:29.986Z,1015.02
2018-02-17T05:21:29.961Z,1015
2018-02-17T05:22:30.151Z,1015.03
2018-02-17T05:23:29.912Z,1014.97
2018-02-17T05:24:29.886Z,1014.99
2018-02-17T05:25:29.866Z,1014.95
2018-02-17T05:26:29.841Z,1014.99
2018-02-17T05:27:29.814Z,1014.95
2018-02-17T05:28:29.788Z,1014.96
2018-02-17T05:29:29.763Z,1014.99
2018-02-17T05:30:29.738Z,1014.94
2018-02-17T05:31:29.717Z,1014.98
2018-02-17T05:32:29.689Z,1014.96
2018-02-17T05:33:29.665Z,1014.96
2018-02-17T05:34:29.642Z,1014.94
2018-02-17T05:35:29.616Z,1014.93
2018-02-17T05:36:29.590Z,1014.91
2018-02-17T05:37:29.577Z,1014.86
2018-02-17T05:38:29.546Z,1014.86
2018-02-17T05:39:29.515Z,1014.81
2018-02-17T05:40:29.492Z,1014.8
2018-02-17T05:41:29.467Z,1014.78
2018-02-17T05:42:29.441Z,1014.76
2018-02-17T05:43:29.419Z,1014.76
2018-02-17T05:44:29.392Z,1014.8
2018-02-17T05:45:29.368Z,1014.84
2018-02-17T05:46:29.343Z,1014.81
2018-02-17T05:47:29.317Z,1014.83
2018-02-17T05:48:29.297Z,1014.8
2018-02-17T05:49:29.274Z,1014.84
2018-02-17T05:50:29.249Z,1014.88
2018-02-17T05:51:29.222Z,1014.87
2018-02-17T05:52:29.199Z,1014.87
2018-02-17T05:53:29.173Z,1014.9
2018-02-17T05:54:29.145Z,1014.92
2018-02-17T05:55:29.120Z,1014.92
2018-02-17T05:56:29.105Z,1014.9
2018-02-17T05:57:29.072Z,1014.88
2018-02-17T05:58:29.047Z,1014.92
2018-02-17T05:59:29.021Z,1014.91
2018-02-17T06:00:29.001Z,1014.89
2018-02-17T06:01:28.974Z,1014.92
2018-02-17T06:02:28.954Z,1014.95
2018-02-17T06:03:28.924Z,1014.93
2018-02-17T06:04:28.905Z,1014.94
2018-02-17T06:05:28.875Z,1014.92
2018-02-17T06:06:28.851Z,1014.96
2018-02-17T06:07:28.827Z,1014.94
2018-02-17T06:08:28.800Z,1014.95
2018-02-17T06:09:28.777Z,1014.93
2018-02-17T06:10:28.755Z,1014.95
2018-02-17T06:11:28.727Z,1014.93
2018-02-17T06:12:28.713Z,1014.9
2018-02-17T06:13:28.677Z,1014.91
2018-02-17T06:14:28.654Z,1014.87
2018-02-17T06:15:28.630Z,1014.91
2018-02-17T06:16:28.606Z,1014.95
2018-02-17T06:17:28.586Z,1014.92
2018-02-17T06:18:28.555Z,1014.96
2018-02-17T06:19:28.530Z,1014.93
2018-02-17T06:20:28.508Z,1014.92
2018-02-17T06:21:28.485Z,1014.9
2018-02-17T06:22:28.457Z,1014.92
2018-02-17T06:23:28.436Z,1014.94
2018-02-17T06:24:28.410Z,1014.9
2018-02-17T06:25:28.384Z,1014.91
2018-02-17T06:26:28.361Z,1014.92
2018-02-17T06:27:28.336Z,1014.92
2018-02-17T06:28:28.312Z,1014.88
2018-02-17T06:29:28.287Z,1014.93
2018-02-17T06:30:28.261Z,1014.93
2018-02-17T06:31:28.239Z,1014.91
2018-02-17T06:32:28.214Z,1014.94
2018-02-17T06:33:28.187Z,1014.93
2018-02-17T06:34:28.164Z,1014.93
2018-02-17T06:35:28.138Z,1014.88
2018-02-17T06:36:28.119Z,1014.95
2018-02-17T06:37:28.094Z,1014.94
2018-02-17T06:38:28.067Z,1014.94
2018-02-17T06:39:28.044Z,1014.92
2018-02-17T06:40:28.018Z,1014.98
2018-02-17T06:41:27.994Z,1014.99
2018-02-17T06:42:27.968Z,1014.98
2018-02-17T06:43:27.943Z,1014.97
2018-02-17T06:44:27.923Z,1014.92
2018-02-17T06:45:27.897Z,1014.88
2018-02-17T06:46:27.870Z,1014.84
2018-02-17T06:47:27.845Z,1014.78
2018-02-17T06:48:27.821Z,1014.8
2018-02-17T06:49:27.797Z,1014.77
2018-02-17T06:50:27.772Z,1014.76
2018-02-17T06:51:27.748Z,1014.76
2018-02-17T06:52:27.723Z,1014.72
2018-02-17T06:53:27.700Z,1014.73
2018-02-17T06:54:27.676Z,1014.69
2018-02-17T06:55:27.649Z,1014.66
2018-02-17T06:56:27.627Z,1014.62
2018-02-17T06:57:27.602Z,1014.58
2018-02-17T06:58:27.577Z,1014.61
2018-02-17T06:59:27.551Z,1014.55
2018-02-17T07:00:27.533Z,1014.59
2018-02-17T07:01:27.507Z,1014.56
2018-02-17T07:02:27.480Z,1014.6
2018-02-17T07:03:27.465Z,1014.58
2018-02-17T07:04:27.440Z,1014.59
2018-02-17T07:05:27.405Z,1014.57
2018-02-17T07:06:27.385Z,1014.54
2018-02-17T07:07:27.361Z,1014.53
2018-02-17T07:08:27.334Z,1014.48
2018-02-17T07:09:27.315Z,1014.54
2018-02-17T07:10:27.287Z,1014.48
2018-02-17T07:11:27.263Z,1014.5
2018-02-17T07:12:27.241Z,1014.51
2018-02-17T07:13:27.210Z,1014.5
2018-02-17T07:14:27.188Z,1014.51
2018-02-17T07:15:27.166Z,1014.51
2018-02-17T07:16:27.138Z,1014.5
2018-02-17T07:17:27.112Z,1014.5
2018-02-17T07:18:27.091Z,1014.5
2018-02-17T07:19:27.067Z,1014.49
2018-02-17T07:20:27.071Z,1014.49
2018-02-17T07:21:27.018Z,1014.46
2018-02-17T07:22:27.196Z,1014.47
2018-02-17T07:23:26.968Z,1014.44
2018-02-17T07:24:26.944Z,1014.45
2018-02-17T07:25:26.923Z,1014.43
2018-02-17T07:26:26.894Z,1014.41
2018-02-17T07:27:26.872Z,1014.43
2018-02-17T07:28:26.850Z,1014.37
2018-02-17T07:29:26.821Z,1014.46
2018-02-17T07:30:26.800Z,1014.42
2018-02-17T07:31:26.775Z,1014.41
2018-02-17T07:32:26.748Z,1014.41
2018-02-17T07:33:26.725Z,1014.39
2018-02-17T07:34:26.703Z,1014.38
2018-02-17T07:35:26.677Z,1014.43
2018-02-17T07:36:26.652Z,1014.41
2018-02-17T07:37:26.628Z,1014.38
2018-02-17T07:38:26.606Z,1014.41
2018-02-17T07:39:26.581Z,1014.41
2018-02-17T07:40:26.557Z,1014.4
2018-02-17T07:41:26.533Z,1014.37
2018-02-17T07:42:26.519Z,1014.37
2018-02-17T07:43:26.491Z,1014.39
2018-02-17T07:44:26.461Z,1014.41
2018-02-17T07:45:26.440Z,1014.37
2018-02-17T07:46:26.414Z,1014.34
2018-02-17T07:47:26.387Z,1014.34
2018-02-17T07:48:26.367Z,1014.31
2018-02-17T07:49:26.346Z,1014.32
2018-02-17T07:50:26.320Z,1014.3
2018-02-17T07:51:26.295Z,1014.34
2018-02-17T07:52:26.267Z,1014.34
2018-02-17T07:53:26.245Z,1014.35
2018-02-17T07:54:26.220Z,1014.34
2018-02-17T07:55:26.203Z,1014.41
2018-02-17T07:56:26.173Z,1014.39
2018-02-17T07:57:26.149Z,1014.39
2018-02-17T07:58:26.125Z,1014.37
2018-02-17T07:59:26.102Z,1014.41
2018-02-17T08:00:26.081Z,1014.4
2018-02-17T08:01:26.057Z,1014.39
2018-02-17T08:02:26.030Z,1014.42
2018-02-17T08:03:26.012Z,1014.38
2018-02-17T08:04:25.987Z,1014.42
2018-02-17T08:05:25.963Z,1014.4
2018-02-17T08:06:25.937Z,1014.4
2018-02-17T08:07:25.936Z,1014.41
2018-02-17T08:08:25.888Z,1014.39
2018-02-17T08:09:25.865Z,1014.33
2018-02-17T08:10:25.842Z,1014.33
2018-02-17T08:11:25.819Z,1014.34
2018-02-17T08:12:25.796Z,1014.35
2018-02-17T08:13:25.771Z,1014.33
2018-02-17T08:14:25.748Z,1014.34
2018-02-17T08:15:25.736Z,1014.29
2018-02-17T08:16:25.708Z,1014.31
2018-02-17T08:17:25.712Z,1014.29
2018-02-17T08:18:25.655Z,1014.32
2018-02-17T08:19:25.646Z,1014.33
2018-02-17T08:20:25.614Z,1014.29
2018-02-17T08:21:25.585Z,1014.3
2018-02-17T08:22:25.565Z,1014.3
2018-02-17T08:23:25.539Z,1014.29
2018-02-17T08:24:25.525Z,1014.31
2018-02-17T08:25:25.507Z,1014.33
2018-02-17T08:26:25.469Z,1014.29
2018-02-17T08:27:25.449Z,1014.35
2018-02-17T08:28:25.422Z,1014.3
2018-02-17T08:29:25.401Z,1014.32
2018-02-17T08:30:25.382Z,1014.36
2018-02-17T08:31:25.360Z,1014.4
2018-02-17T08:32:25.337Z,1014.35
2018-02-17T08:33:25.325Z,1014.36
2018-02-17T08:34:25.283Z,1014.36
2018-02-17T08:35:25.267Z,1014.41
2018-02-17T08:36:25.281Z,1014.35
2018-02-17T08:37:25.216Z,1014.36
2018-02-17T08:38:25.206Z,1014.32
2018-02-17T08:39:25.168Z,1014.32
2018-02-17T08:40:25.148Z,1014.33
2018-02-17T08:41:25.125Z,1014.34
2018-02-17T08:42:25.101Z,1014.31
2018-02-17T08:43:25.082Z,1014.32
2018-02-17T08:44:25.058Z,1014.29
2018-02-17T08:45:25.033Z,1014.3
2018-02-17T08:46:25.047Z,1014.31
2018-02-17T08:47:24.990Z,1014.29
2018-02-17T08:48:24.965Z,1014.26
2018-02-17T08:49:24.947Z,1014.29
2018-02-17T08:50:24.934Z,1014.3
2018-02-17T08:51:24.895Z,1014.3
2018-02-17T08:52:24.884Z,1014.31
2018-02-17T08:53:24.864Z,1014.26
2018-02-17T08:54:24.834Z,1014.26
2018-02-17T08:55:24.824Z,1014.25
2018-02-17T08:56:24.788Z,1014.25
2018-02-17T08:57:24.770Z,1014.26
2018-02-17T08:58:24.741Z,1014.27
2018-02-17T08:59:24.726Z,1014.26
2018-02-17T09:00:24.695Z,1014.31
2018-02-17T09:01:24.671Z,1014.33
2018-02-17T09:02:24.649Z,1014.34
2018-02-17T09:03:24.627Z,1014.28
2018-02-17T09:04:24.613Z,1014.3
2018-02-17T09:05:24.585Z,1014.29
2018-02-17T09:06:24.573Z,1014.26
2018-02-17T09:07:24.539Z,1014.27
2018-02-17T09:08:24.519Z,1014.29
2018-02-17T09:09:24.496Z,1014.29
2018-02-17T09:10:24.473Z,1014.29
2018-02-17T09:11:24.449Z,1014.24
2018-02-17T09:12:24.428Z,1014.32
2018-02-17T09:13:24.407Z,1014.34
2018-02-17T09:14:24.384Z,1014.34
2018-02-17T09:15:24.362Z,1014.3
2018-02-17T09:16:24.345Z,1014.28
2018-02-17T09:17:24.319Z,1014.29
2018-02-17T09:18:24.302Z,1014.3
2018-02-17T09:19:24.286Z,1014.34
2018-02-17T09:20:24.253Z,1014.34
2018-02-17T09:21:24.233Z,1014.32
2018-02-17T09:22:24.412Z,1014.32
2018-02-17T09:23:24.194Z,1014.3
2018-02-17T09:24:24.167Z,1014.37
2018-02-17T09:25:24.157Z,1014.36
2018-02-17T09:26:24.126Z,1014.35
2018-02-17T09:27:24.103Z,1014.35
2018-02-17T09:28:24.083Z,1014.33
2018-02-17T09:29:24.068Z,1014.3
2018-02-17T09:30:24.041Z,1014.32
2018-02-17T09:31:24.019Z,1014.31
2018-02-17T09:32:23.996Z,1014.32
2018-02-17T09:33:23.977Z,1014.31
2018-02-17T09:34:23.960Z,1014.27
2018-02-17T09:35:23.938Z,1014.34
2018-02-17T09:36:24.121Z,1014.31
2018-02-17T09:37:23.895Z,1014.35
2018-02-17T09:38:23.874Z,1014.34
2018-02-17T09:39:23.855Z,1014.37
2018-02-17T09:40:23.834Z,1014.43
2018-02-17T09:41:23.813Z,1014.44
2018-02-17T09:42:23.793Z,1014.47
2018-02-17T09:43:23.771Z,1014.46
2018-02-17T09:44:23.750Z,1014.47
2018-02-17T09:45:23.730Z,1014.48
2018-02-17T09:46:23.710Z,1014.47
2018-02-17T09:47:23.691Z,1014.43
2018-02-17T09:48:23.668Z,1014.44
2018-02-17T09:49:23.649Z,1014.42
2018-02-17T09:50:23.639Z,1014.43
2018-02-17T09:51:23.608Z,1014.46
2018-02-17T09:52:23.593Z,1014.46
2018-02-17T09:53:23.567Z,1014.48
2018-02-17T09:54:23.548Z,1014.44
2018-02-17T09:55:23.527Z,1014.46
2018-02-17T09:56:23.511Z,1014.5
2018-02-17T09:57:23.489Z,1014.49
2018-02-17T09:58:23.468Z,1014.51
2018-02-17T09:59:23.448Z,1014.51
2018-02-17T10:00:23.430Z,1014.52
2018-02-17T10:01:23.410Z,1014.52
2018-02-17T10:02:23.390Z,1014.54
2018-02-17T10:03:23.372Z,1014.56
2018-02-17T10:04:23.349Z,1014.5
2018-02-17T10:05:23.331Z,1014.48
2018-02-17T10:06:23.313Z,1014.54
2018-02-17T10:07:23.294Z,1014.55
2018-02-17T10:08:23.274Z,1014.55
2018-02-17T10:09:23.255Z,1014.55
2018-02-17T10:10:23.236Z,1014.6
2018-02-17T10:11:23.255Z,1014.61
2018-02-17T10:12:23.199Z,1014.62
2018-02-17T10:13:23.178Z,1014.62
2018-02-17T10:14:23.162Z,1014.58
2018-02-17T10:15:23.142Z,1014.6
2018-02-17T10:16:23.122Z,1014.63
2018-02-17T10:17:23.313Z,1014.64
2018-02-17T10:18:23.084Z,1014.61
2018-02-17T10:19:23.066Z,1014.59
2018-02-17T10:20:23.049Z,1014.55
2018-02-17T10:21:23.029Z,1014.54
2018-02-17T10:22:23.011Z,1014.55
2018-02-17T10:23:22.994Z,1014.57
2018-02-17T10:24:22.981Z,1014.57
2018-02-17T10:25:22.962Z,1014.58
2018-02-17T10:26:22.939Z,1014.56
2018-02-17T10:27:22.920Z,1014.58
2018-02-17T10:28:22.902Z,1014.57
2018-02-17T10:29:22.885Z,1014.57
2018-02-17T10:30:22.866Z,1014.62
2018-02-17T10:31:23.097Z,1014.58
2018-02-17T10:32:22.829Z,1014.57
2018-02-17T10:33:22.812Z,1014.54
2018-02-17T10:34:22.794Z,1014.6
2018-02-17T10:35:22.774Z,1014.56
2018-02-17T10:36:22.757Z,1014.54
2018-02-17T10:37:22.738Z,1014.55
2018-02-17T10:38:22.718Z,1014.57
2018-02-17T10:39:22.705Z,1014.58
2018-02-17T10:40:22.686Z,1014.57
2018-02-17T10:41:22.668Z,1014.58
2018-02-17T10:42:22.653Z,1014.59
2018-02-17T10:43:22.633Z,1014.66
2018-02-17T10:44:22.613Z,1014.65
2018-02-17T10:45:22.595Z,1014.67
2018-02-17T10:46:22.577Z,1014.7
2018-02-17T10:47:22.562Z,1014.71
2018-02-17T10:48:22.543Z,1014.65
2018-02-17T10:49:22.522Z,1014.73
2018-02-17T10:50:22.504Z,1014.67
2018-02-17T10:51:22.486Z,1014.66
2018-02-17T10:52:22.470Z,1014.67
2018-02-17T10:53:22.452Z,1014.66
2018-02-17T10:54:22.435Z,1014.63
2018-02-17T10:55:22.419Z,1014.67
2018-02-17T10:56:22.398Z,1014.64
2018-02-17T10:57:22.380Z,1014.6
2018-02-17T10:58:22.362Z,1014.66
2018-02-17T10:59:22.346Z,1014.64
2018-02-17T11:00:22.326Z,1014.65
2018-02-17T11:01:22.313Z,1014.64
2018-02-17T11:02:22.294Z,1014.61
2018-02-17T11:03:22.277Z,1014.57
2018-02-17T11:04:22.267Z,1014.6
2018-02-17T11:05:22.241Z,1014.59
2018-02-17T11:06:22.223Z,1014.61
2018-02-17T11:07:22.208Z,1014.61
2018-02-17T11:08:22.198Z,1014.62
2018-02-17T11:09:22.173Z,1014.62
2018-02-17T11:10:22.156Z,1014.61
2018-02-17T11:11:22.138Z,1014.58
2018-02-17T11:12:22.121Z,1014.57
2018-02-17T11:13:22.107Z,1014.55
2018-02-17T11:14:22.092Z,1014.55
2018-02-17T11:15:22.071Z,1014.55
2018-02-17T11:16:22.056Z,1014.57
2018-02-17T11:17:22.039Z,1014.56
2018-02-17T11:18:22.022Z,1014.56
2018-02-17T11:19:22.005Z,1014.64
2018-02-17T11:20:21.989Z,1014.63
2018-02-17T11:21:21.970Z,1014.66
2018-02-17T11:22:22.406Z,1014.61
2018-02-17T11:23:21.940Z,1014.65
2018-02-17T11:24:21.926Z,1014.64
2018-02-17T11:25:21.902Z,1014.64
2018-02-17T11:26:21.891Z,1014.66
2018-02-17T11:27:21.908Z,1014.64
2018-02-17T11:28:21.857Z,1014.66
2018-02-17T11:29:21.833Z,1014.63
2018-02-17T11:30:21.820Z,1014.66
2018-02-17T11:31:21.800Z,1014.65
2018-02-17T11:32:21.785Z,1014.6
2018-02-17T11:33:21.769Z,1014.59
2018-02-17T11:34:21.749Z,1014.59
2018-02-17T11:35:21.735Z,1014.56
2018-02-17T11:36:21.716Z,1014.52
2018-02-17T11:37:21.707Z,1014.53
2018-02-17T11:38:21.683Z,1014.5
2018-02-17T11:39:21.666Z,1014.52
2018-02-17T11:40:21.651Z,1014.47
2018-02-17T11:41:21.639Z,1014.5
2018-02-17T11:42:21.617Z,1014.55
2018-02-17T11:43:21.600Z,1014.52
2018-02-17T11:44:21.586Z,1014.55
2018-02-17T11:45:21.569Z,1014.52
2018-02-17T11:46:21.551Z,1014.54
2018-02-17T11:47:21.546Z,1014.49
2018-02-17T11:48:21.570Z,1014.48
2018-02-17T11:49:21.498Z,1014.44
2018-02-17T11:50:21.482Z,1014.47
2018-02-17T11:51:21.466Z,1014.47
2018-02-17T11:52:21.454Z,1014.47
2018-02-17T11:53:21.435Z,1014.48
2018-02-17T11:54:21.417Z,1014.5
2018-02-17T11:55:21.398Z,1014.52
2018-02-17T11:56:21.380Z,1014.49
2018-02-17T11:57:21.569Z,1014.46
2018-02-17T11:58:21.349Z,1014.5
2018-02-17T11:59:21.335Z,1014.44
2018-02-17T12:00:21.316Z,1014.51
2018-02-17T12:01:21.295Z,1014.48
2018-02-17T12:02:21.279Z,1014.49
2018-02-17T12:03:21.261Z,1014.51
2018-02-17T12:04:21.245Z,1014.52
2018-02-17T12:05:21.229Z,1014.55
2018-02-17T12:06:21.215Z,1014.58
2018-02-17T12:07:21.194Z,1014.51
2018-02-17T12:08:21.177Z,1014.53